Time;durP1;ratioP1;P1;durP2;ratioP2;P2;SDS_P1;SDS_P2;PMS_P1;PMS_P2;Temp;Humidity;BMP_temperature;BMP_pressure;BME280_temperature;BME280_humidity;BME280_pressure;Samples;Min_cycle;Max_cycle;Signal;HPM_P1;HPM_P2
2021/08/31 00:01:48;;;;;;;0.70;0.60;;;16.00;99.90;;;;;;5017299;28;20953;-76
2021/08/31 00:04:14;;;;;;;2.23;1.90;;;16.00;99.90;;;;;;5015468;28;20179;-77
2021/08/31 00:06:41;;;;;;;2.47;2.17;;;16.00;99.90;;;;;;5006258;28;20179;-76
2021/08/31 00:09:07;;;;;;;2.20;1.90;;;15.90;99.90;;;;;;5024258;28;20449;-76
2021/08/31 00:11:33;;;;;;;0.97;0.87;;;15.90;99.90;;;;;;5014219;28;20439;-76
2021/08/31 00:14:00;;;;;;;1.20;1.10;;;15.90;99.90;;;;;;5014232;28;20168;-76
2021/08/31 00:16:26;;;;;;;2.37;2.20;;;15.90;99.90;;;;;;5031273;28;20866;-76
2021/08/31 00:18:51;;;;;;;2.73;2.63;;;15.90;99.90;;;;;;5027532;28;20446;-76
2021/08/31 00:21:18;;;;;;;1.57;1.37;;;15.90;99.90;;;;;;5029415;28;20164;-76
2021/08/31 00:23:43;;;;;;;2.73;1.83;;;15.90;99.90;;;;;;5018564;28;20187;-76
2021/08/31 00:26:09;;;;;;;2.00;1.70;;;15.90;99.90;;;;;;5035734;28;20803;-76
2021/08/31 00:28:35;;;;;;;1.93;1.80;;;15.80;99.90;;;;;;5016115;28;20204;-76
2021/08/31 00:31:02;;;;;;;3.03;1.27;;;15.80;99.90;;;;;;5015686;28;20427;-75
2021/08/31 00:33:28;;;;;;;1.40;1.30;;;15.80;99.90;;;;;;5019306;28;20185;-76
2021/08/31 00:35:54;;;;;;;2.50;1.00;;;15.70;99.90;;;;;;5014890;28;20427;-76
2021/08/31 00:38:20;;;;;;;1.63;1.53;;;15.80;99.90;;;;;;5029124;28;20449;-76
2021/08/31 00:40:47;;;;;;;2.03;1.40;;;15.70;99.90;;;;;;5013721;28;20408;-76
2021/08/31 00:43:12;;;;;;;3.00;1.70;;;15.70;99.90;;;;;;5014331;28;20461;-76
2021/08/31 00:45:38;;;;;;;2.30;1.53;;;15.70;99.90;;;;;;5012858;28;20415;-76
2021/08/31 00:48:04;;;;;;;1.70;1.60;;;15.70;99.90;;;;;;5013922;28;20303;-76
2021/08/31 00:50:31;;;;;;;3.40;1.87;;;15.70;99.90;;;;;;5017741;28;20200;-76
2021/08/31 00:52:59;;;;;;;1.90;1.80;;;15.70;99.90;;;;;;5013549;28;20469;-76
2021/08/31 00:55:27;;;;;;;6.40;1.80;;;15.70;99.90;;;;;;5013770;28;20462;-76
2021/08/31 00:57:54;;;;;;;1.37;1.27;;;15.70;99.90;;;;;;5013186;28;20419;-76
2021/08/31 01:00:21;;;;;;;2.30;2.10;;;15.70;99.90;;;;;;5013236;28;20423;-76
2021/08/31 01:02:47;;;;;;;3.00;1.00;;;15.70;99.90;;;;;;5014253;28;20457;-76
2021/08/31 01:05:13;;;;;;;1.50;1.10;;;15.70;99.90;;;;;;5012917;28;20415;-76
2021/08/31 01:07:42;;;;;;;2.27;1.50;;;15.70;99.90;;;;;;5013245;28;20423;-76
2021/08/31 01:10:09;;;;;;;2.00;1.90;;;15.70;99.90;;;;;;5012879;28;20823;-75
2021/08/31 01:12:35;;;;;;;2.07;1.93;;;15.70;99.90;;;;;;5033131;28;20525;-76
2021/08/31 01:15:02;;;;;;;5.70;1.27;;;15.60;99.90;;;;;;5034355;28;20410;-76
2021/08/31 01:17:30;;;;;;;1.33;1.23;;;15.60;99.90;;;;;;5025539;28;20431;-76
2021/08/31 01:19:58;;;;;;;1.40;1.30;;;15.60;99.90;;;;;;5012732;28;20427;-74
2021/08/31 01:22:24;;;;;;;3.27;2.20;;;15.60;99.90;;;;;;5013639;28;20447;-76
2021/08/31 01:24:59;;;;;;;11.23;1.27;;;15.60;99.90;;;;;;5013796;28;20796;-76
2021/08/31 01:27:25;;;;;;;1.40;1.27;;;15.60;99.90;;;;;;5013668;28;20538;-75
2021/08/31 01:29:53;;;;;;;1.47;1.33;;;15.60;99.90;;;;;;5017601;28;20438;-75
2021/08/31 01:32:19;;;;;;;2.60;1.80;;;15.60;99.90;;;;;;5025124;28;20847;-75
2021/08/31 01:34:51;;;;;;;3.20;2.20;;;15.60;99.90;;;;;;5034620;28;20828;-76
2021/08/31 01:37:18;;;;;;;1.17;1.07;;;15.60;99.90;;;;;;5032275;28;20423;-77
2021/08/31 01:39:44;;;;;;;1.77;1.63;;;15.60;99.90;;;;;;5022116;28;20196;-77
2021/08/31 01:42:09;;;;;;;2.33;1.70;;;15.50;99.90;;;;;;5036255;28;20448;-76
2021/08/31 01:44:35;;;;;;;1.73;1.47;;;15.60;99.90;;;;;;5034781;28;20207;-76
2021/08/31 01:47:01;;;;;;;2.23;2.03;;;15.50;99.90;;;;;;5024360;28;20545;-76
2021/08/31 01:49:28;;;;;;;0.80;0.70;;;15.50;99.90;;;;;;5016331;28;20196;-75
2021/08/31 01:51:54;;;;;;;1.73;1.63;;;15.50;99.90;;;;;;5015094;28;20489;-77
2021/08/31 01:54:19;;;;;;;3.73;1.10;;;15.50;99.90;;;;;;5022578;28;20431;-76
2021/08/31 01:56:45;;;;;;;9.67;2.80;;;15.50;99.90;;;;;;5016646;28;20427;-77
2021/08/31 01:59:11;;;;;;;1.20;1.10;;;15.50;99.90;;;;;;5016700;28;20212;-77
2021/08/31 02:01:38;;;;;;;5.23;2.10;;;15.50;99.90;;;;;;5020442;28;20661;-77
2021/08/31 02:04:04;;;;;;;2.23;2.03;;;15.50;99.90;;;;;;5036551;28;20168;-77
2021/08/31 02:06:30;;;;;;;1.30;1.20;;;15.40;99.90;;;;;;5036264;28;20402;-76
2021/08/31 02:08:56;;;;;;;4.77;2.93;;;15.40;99.90;;;;;;5019360;28;20443;-76
2021/08/31 02:11:23;;;;;;;1.20;0.93;;;15.40;99.90;;;;;;5016803;28;20768;-76
2021/08/31 02:13:50;;;;;;;1.00;0.90;;;15.40;99.90;;;;;;5015393;28;20172;-77
2021/08/31 02:16:16;;;;;;;2.30;1.53;;;15.40;99.90;;;;;;5024198;28;20488;-76
2021/08/31 02:18:42;;;;;;;1.60;1.50;;;15.40;99.90;;;;;;5021661;28;20454;-77
2021/08/31 02:21:10;;;;;;;1.63;1.00;;;15.40;99.90;;;;;;5018815;28;20783;-76
2021/08/31 02:23:39;;;;;;;2.27;1.00;;;15.40;99.90;;;;;;5014696;28;20211;-75
2021/08/31 02:26:05;;;;;;;1.80;1.70;;;15.30;99.90;;;;;;5014885;28;20473;-76
2021/08/31 02:28:30;;;;;;;5.13;2.90;;;15.30;99.90;;;;;;5033302;28;20846;-76
2021/08/31 02:30:56;;;;;;;1.40;1.30;;;15.30;99.90;;;;;;5031298;28;20250;-76
2021/08/31 02:33:22;;;;;;;1.47;1.37;;;15.30;99.90;;;;;;5018864;28;20902;-77
2021/08/31 02:35:48;;;;;;;2.47;2.20;;;15.30;99.90;;;;;;5028027;28;20179;-77
2021/08/31 02:38:14;;;;;;;2.00;1.30;;;15.20;99.90;;;;;;5035746;28;20702;-77
2021/08/31 02:40:39;;;;;;;2.57;2.30;;;15.30;99.90;;;;;;5019418;28;20226;-76
2021/08/31 02:43:05;;;;;;;2.80;2.60;;;15.20;99.90;;;;;;5014529;28;20204;-76
2021/08/31 02:45:31;;;;;;;3.00;2.03;;;15.20;99.90;;;;;;5014760;28;20658;-77
2021/08/31 02:47:58;;;;;;;4.47;2.87;;;15.20;99.90;;;;;;5028049;28;20541;-77
2021/08/31 02:50:25;;;;;;;1.50;1.40;;;15.20;99.90;;;;;;5028738;28;20172;-76
2021/08/31 02:52:52;;;;;;;4.10;1.43;;;15.20;99.90;;;;;;5016810;28;20994;-76
2021/08/31 02:55:19;;;;;;;3.10;2.43;;;15.20;99.90;;;;;;5022634;28;20442;-77
2021/08/31 02:57:45;;;;;;;2.40;2.20;;;15.20;99.90;;;;;;5025738;28;20510;-77
2021/08/31 03:00:18;;;;;;;1.27;0.90;;;15.20;99.90;;;;;;5029280;28;20438;-76
2021/08/31 03:02:47;;;;;;;5.17;2.23;;;15.20;99.90;;;;;;5021048;28;20458;-76
2021/08/31 03:05:13;;;;;;;1.40;1.30;;;15.10;99.90;;;;;;5012861;28;20400;-75
2021/08/31 03:07:38;;;;;;;2.30;1.20;;;15.10;99.90;;;;;;5021665;28;20430;-75
2021/08/31 03:10:04;;;;;;;3.00;2.20;;;15.10;99.90;;;;;;5013206;28;20188;-75
2021/08/31 03:12:30;;;;;;;6.10;4.77;;;15.20;99.90;;;;;;5024972;28;20254;-76
2021/08/31 03:14:55;;;;;;;3.23;2.30;;;15.10;99.90;;;;;;5018774;28;20202;-75
2021/08/31 03:17:21;;;;;;;3.93;3.57;;;15.10;99.90;;;;;;5023167;28;20186;-75
2021/08/31 03:19:46;;;;;;;9.67;2.80;;;15.10;99.90;;;;;;5031645;28;20834;-76
2021/08/31 03:22:12;;;;;;;2.33;1.47;;;15.10;99.90;;;;;;5029979;28;20219;-76
2021/08/31 03:24:38;;;;;;;2.80;2.60;;;15.10;99.90;;;;;;5032500;28;20199;-75
2021/08/31 03:27:07;;;;;;;1.90;1.80;;;15.10;99.90;;;;;;5026330;28;20255;-75
2021/08/31 03:29:33;;;;;;;2.40;1.00;;;15.00;99.90;;;;;;5018364;28;20196;-75
2021/08/31 03:31:59;;;;;;;4.23;1.77;;;15.00;99.90;;;;;;5026772;28;20471;-76
2021/08/31 03:34:24;;;;;;;0.70;0.60;;;15.00;99.90;;;;;;5039863;28;20465;-76
2021/08/31 03:36:50;;;;;;;3.20;1.53;;;15.00;99.90;;;;;;5012152;28;20259;-76
2021/08/31 03:39:16;;;;;;;2.37;2.13;;;15.00;99.90;;;;;;5016922;28;20575;-76
2021/08/31 03:41:42;;;;;;;1.83;1.73;;;15.00;99.90;;;;;;5030353;28;20453;-76
2021/08/31 03:44:07;;;;;;;2.33;2.13;;;15.00;99.90;;;;;;5028227;28;20267;-76
2021/08/31 03:46:33;;;;;;;7.40;2.20;;;15.00;99.90;;;;;;5014652;28;20270;-76
2021/08/31 03:48:59;;;;;;;3.80;1.37;;;15.00;99.90;;;;;;5031152;28;20203;-75
2021/08/31 03:51:24;;;;;;;3.10;2.90;;;15.00;99.90;;;;;;5028042;28;20180;-75
2021/08/31 03:53:50;;;;;;;3.20;3.00;;;15.00;99.90;;;;;;5026061;28;20636;-76
2021/08/31 03:56:15;;;;;;;3.70;2.33;;;15.00;99.90;;;;;;5020056;28;20255;-76
2021/08/31 03:58:41;;;;;;;3.87;1.73;;;14.90;99.90;;;;;;5032114;28;20266;-76
2021/08/31 04:01:06;;;;;;;1.73;1.63;;;14.90;99.90;;;;;;5015824;28;20204;-76
2021/08/31 04:03:32;;;;;;;1.63;1.53;;;14.90;99.90;;;;;;5023826;28;20246;-75
2021/08/31 04:05:57;;;;;;;1.97;1.83;;;14.90;99.90;;;;;;5026827;28;20211;-77
2021/08/31 04:08:23;;;;;;;1.40;1.30;;;14.90;99.90;;;;;;5043326;28;20199;-76
2021/08/31 04:10:48;;;;;;;2.33;1.83;;;14.90;99.90;;;;;;5012324;28;20175;-76
2021/08/31 04:13:17;;;;;;;2.13;1.93;;;14.90;99.90;;;;;;5011037;28;20263;-76
2021/08/31 04:15:43;;;;;;;1.53;1.43;;;14.90;99.90;;;;;;5010789;28;20267;-76
2021/08/31 04:18:09;;;;;;;1.73;1.63;;;14.90;99.90;;;;;;5018217;28;20561;-76
2021/08/31 04:20:34;;;;;;;4.13;2.03;;;14.80;99.90;;;;;;5027441;28;20435;-76
2021/08/31 04:23:00;;;;;;;3.37;3.07;;;14.90;99.90;;;;;;5010960;28;20200;-76
2021/08/31 04:25:25;;;;;;;1.40;1.30;;;14.90;99.90;;;;;;5012377;28;20203;-76
2021/08/31 04:27:51;;;;;;;4.47;3.80;;;14.90;99.90;;;;;;5026072;28;20183;-75
2021/08/31 04:30:16;;;;;;;3.83;3.63;;;14.90;99.90;;;;;;5015519;28;20185;-76
2021/08/31 04:32:42;;;;;;;1.47;1.33;;;14.90;99.90;;;;;;5012596;28;20184;-77
2021/08/31 04:35:08;;;;;;;3.57;3.37;;;14.90;99.90;;;;;;5010552;28;20179;-75
2021/08/31 04:37:34;;;;;;;5.77;5.17;;;15.00;99.90;;;;;;5014791;28;20336;-76
2021/08/31 04:40:00;;;;;;;6.87;2.33;;;15.00;99.90;;;;;;5031675;28;20962;-76
2021/08/31 04:42:26;;;;;;;7.03;2.40;;;15.00;99.90;;;;;;5027871;28;20249;-77
2021/08/31 04:44:52;;;;;;;1.87;1.77;;;15.10;99.90;;;;;;5023988;28;20439;-76
2021/08/31 04:47:19;;;;;;;2.83;2.70;;;15.10;99.90;;;;;;5029594;28;20437;-77
2021/08/31 04:49:45;;;;;;;4.47;4.23;;;15.10;99.90;;;;;;5031567;28;20191;-76
2021/08/31 04:52:10;;;;;;;3.00;2.63;;;15.20;99.90;;;;;;5023236;28;20435;-76
2021/08/31 04:54:36;;;;;;;1.60;1.50;;;15.20;99.90;;;;;;5023610;28;20176;-76
2021/08/31 04:57:02;;;;;;;10.23;3.00;;;15.20;99.90;;;;;;5015648;28;20184;-76
2021/08/31 04:59:27;;;;;;;1.87;1.77;;;15.20;99.90;;;;;;5010900;28;20261;-75
2021/08/31 05:01:53;;;;;;;4.23;3.93;;;15.30;99.90;;;;;;5017177;28;20235;-75
2021/08/31 05:04:18;;;;;;;9.30;3.07;;;15.30;99.90;;;;;;5028542;28;20179;-74
2021/08/31 05:06:44;;;;;;;4.70;4.37;;;15.30;99.90;;;;;;5021568;28;20187;-75
2021/08/31 05:09:09;;;;;;;7.17;3.90;;;15.30;99.90;;;;;;5032338;28;20195;-75
2021/08/31 05:11:36;;;;;;;3.90;3.70;;;15.40;99.90;;;;;;5029194;28;20554;-75
2021/08/31 05:14:01;;;;;;;3.17;2.17;;;15.40;99.90;;;;;;5029955;28;20334;-76
2021/08/31 05:16:28;;;;;;;4.37;2.17;;;15.50;99.90;;;;;;5013951;28;20513;-76
2021/08/31 05:18:55;;;;;;;1.67;1.57;;;15.40;99.90;;;;;;5025485;28;20262;-76
2021/08/31 05:21:21;;;;;;;4.70;4.40;;;15.50;99.90;;;;;;5034314;28;20437;-76
2021/08/31 05:23:46;;;;;;;12.93;6.97;;;15.50;99.90;;;;;;5016645;28;20998;-77
2021/08/31 05:26:12;;;;;;;5.67;5.13;;;15.50;99.90;;;;;;5016124;28;20237;-76
2021/08/31 05:28:37;;;;;;;1.43;1.33;;;15.60;99.90;;;;;;5027928;28;20209;-76
2021/08/31 05:31:03;;;;;;;8.33;3.70;;;15.60;99.90;;;;;;5031444;28;20190;-77
2021/08/31 05:33:28;;;;;;;5.50;5.10;;;15.60;99.90;;;;;;5025023;28;20184;-77
2021/08/31 05:35:54;;;;;;;3.63;3.43;;;15.70;99.90;;;;;;5032440;28;20187;-76
2021/08/31 05:38:19;;;;;;;2.10;1.87;;;15.70;99.90;;;;;;5015343;28;20207;-77
2021/08/31 05:40:45;;;;;;;10.53;4.17;;;15.70;99.90;;;;;;5014089;28;20181;-76
2021/08/31 05:43:10;;;;;;;2.30;2.10;;;15.80;99.90;;;;;;5017313;28;20207;-77
2021/08/31 05:45:36;;;;;;;1.83;1.73;;;15.70;99.90;;;;;;5027742;28;20175;-76
2021/08/31 05:48:02;;;;;;;9.23;3.80;;;15.80;99.90;;;;;;5029393;28;20187;-75
2021/08/31 05:50:27;;;;;;;10.23;5.30;;;15.80;99.90;;;;;;5025598;28;20169;-75
2021/08/31 05:52:53;;;;;;;6.77;6.17;;;15.80;99.90;;;;;;5020414;28;20461;-76
2021/08/31 05:55:18;;;;;;;12.63;4.23;;;15.80;99.90;;;;;;5016552;28;20191;-75
2021/08/31 05:57:44;;;;;;;3.60;3.30;;;15.80;99.90;;;;;;5014450;28;20184;-75
2021/08/31 06:00:11;;;;;;;5.03;1.67;;;15.80;99.90;;;;;;5024598;28;20179;-76
2021/08/31 06:02:38;;;;;;;3.57;2.97;;;15.80;99.90;;;;;;5030816;28;20299;-76
2021/08/31 06:05:05;;;;;;;7.87;2.97;;;15.80;99.90;;;;;;5030895;28;20640;-76
2021/08/31 06:07:34;;;;;;;2.30;1.87;;;15.80;99.90;;;;;;5029409;28;20454;-77
2021/08/31 06:09:59;;;;;;;5.40;4.97;;;15.80;99.90;;;;;;5029084;28;20461;-76
2021/08/31 06:12:25;;;;;;;5.10;3.00;;;15.80;99.90;;;;;;5032567;28;20438;-76
2021/08/31 06:14:51;;;;;;;3.47;3.00;;;15.80;99.90;;;;;;5033112;28;20178;-77
2021/08/31 06:17:19;;;;;;;3.50;3.13;;;15.90;99.90;;;;;;5022502;28;20430;-75
2021/08/31 06:19:45;;;;;;;3.23;3.00;;;15.90;99.90;;;;;;5020855;28;20214;-76
2021/08/31 06:22:10;;;;;;;2.20;2.03;;;16.00;99.90;;;;;;5015945;28;20455;-76
2021/08/31 06:24:36;;;;;;;4.50;2.77;;;16.00;99.90;;;;;;5014487;28;20443;-76
2021/08/31 06:27:03;;;;;;;8.43;5.73;;;16.00;99.90;;;;;;5016839;28;20438;-76
2021/08/31 06:29:29;;;;;;;2.30;2.10;;;16.00;99.90;;;;;;5014657;28;20192;-77
2021/08/31 06:31:55;;;;;;;4.43;3.90;;;16.00;99.90;;;;;;5016899;28;20782;-76
2021/08/31 06:34:20;;;;;;;2.33;2.23;;;16.00;99.90;;;;;;5033759;28;20168;-76
2021/08/31 06:36:47;;;;;;;4.37;4.07;;;16.10;99.90;;;;;;5031847;28;20183;-76
2021/08/31 06:39:13;;;;;;;4.37;4.07;;;16.10;99.90;;;;;;5018097;28;20589;-76
2021/08/31 06:41:38;;;;;;;3.27;2.80;;;16.10;99.90;;;;;;5013062;28;20435;-76
2021/08/31 06:44:04;;;;;;;3.57;3.27;;;16.10;99.90;;;;;;5015537;28;20189;-76
2021/08/31 06:46:29;;;;;;;4.40;4.10;;;16.10;99.90;;;;;;5013502;28;20203;-76
2021/08/31 06:48:56;;;;;;;6.73;3.83;;;16.20;99.90;;;;;;5026053;28;20285;-76
2021/08/31 06:51:37;;;;;;;5.07;3.77;;;16.20;99.90;;;;;;5014552;28;20187;-76
2021/08/31 06:54:09;;;;;;;4.43;4.13;;;16.20;99.90;;;;;;5014409;28;20434;-76
2021/08/31 06:56:35;;;;;;;5.80;4.90;;;16.30;99.90;;;;;;5013695;28;20445;-77
2021/08/31 06:59:01;;;;;;;3.00;2.80;;;16.30;99.90;;;;;;5028405;28;20552;-75
2021/08/31 07:01:26;;;;;;;8.43;3.00;;;16.30;99.90;;;;;;5013884;28;20168;-75
2021/08/31 07:03:52;;;;;;;3.83;3.53;;;16.40;99.90;;;;;;5022028;28;20219;-77
2021/08/31 07:06:17;;;;;;;4.03;3.43;;;16.40;99.90;;;;;;5015357;28;20175;-76
2021/08/31 07:08:43;;;;;;;2.83;2.70;;;16.40;99.90;;;;;;5014223;28;20657;-76
2021/08/31 07:11:08;;;;;;;6.63;3.17;;;16.50;99.90;;;;;;5013437;28;20181;-75
2021/08/31 07:13:49;;;;;;;4.07;3.77;;;16.60;99.90;;;;;;5015261;28;20180;-76
2021/08/31 07:16:18;;;;;;;7.20;5.13;;;16.60;99.90;;;;;;5025229;28;20191;-76
2021/08/31 07:18:46;;;;;;;4.00;2.00;;;16.60;99.90;;;;;;5017605;28;20601;-77
2021/08/31 07:21:28;;;;;;;11.20;5.30;;;16.60;99.90;;;;;;5021829;28;20485;-76
2021/08/31 07:23:53;;;;;;;7.47;6.23;;;16.60;99.90;;;;;;5012424;28;20458;-76
2021/08/31 07:26:19;;;;;;;4.83;2.00;;;16.70;99.90;;;;;;5016419;28;20955;-77
2021/08/31 07:28:45;;;;;;;7.40;4.00;;;16.80;99.90;;;;;;5021824;28;20196;-77
2021/08/31 07:31:11;;;;;;;2.60;2.40;;;16.80;99.90;;;;;;5013823;28;20172;-77
2021/08/31 07:33:37;;;;;;;3.90;3.50;;;16.90;99.90;;;;;;5028628;28;20595;-75
2021/08/31 07:36:02;;;;;;;5.33;3.40;;;16.90;99.90;;;;;;5012823;28;20438;-76
2021/08/31 07:38:32;;;;;;;3.03;2.83;;;17.00;99.90;;;;;;5033083;28;20188;-76
2021/08/31 07:41:10;;;;;;;6.43;4.13;;;17.00;99.90;;;;;;5033961;28;20187;-77
2021/08/31 07:43:45;;;;;;;5.30;4.40;;;17.00;99.90;;;;;;5029263;28;20901;-76
2021/08/31 07:46:15;;;;;;;8.77;4.13;;;17.00;99.90;;;;;;5024473;28;20860;-75
2021/08/31 07:51:51;;;;;;;4.77;4.30;;;17.10;99.90;;;;;;5015565;28;20472;-76
2021/08/31 07:54:18;;;;;;;6.37;2.93;;;17.10;99.90;;;;;;5030048;28;20446;-77
2021/08/31 07:56:47;;;;;;;9.30;3.27;;;17.10;99.90;;;;;;5015159;28;20474;-77
2021/08/31 07:59:13;;;;;;;7.20;4.67;;;17.20;99.90;;;;;;5017500;28;20538;-77
2021/08/31 08:01:39;;;;;;;4.20;1.43;;;17.20;99.90;;;;;;5012963;28;20525;-77
2021/08/31 08:04:05;;;;;;;2.93;2.70;;;17.30;99.90;;;;;;5021809;28;20857;-77
2021/08/31 08:06:30;;;;;;;5.67;4.40;;;17.30;99.90;;;;;;5025181;28;20266;-76
2021/08/31 08:08:56;;;;;;;3.13;2.80;;;17.40;99.90;;;;;;5033956;28;20710;-78
2021/08/31 08:11:22;;;;;;;5.53;2.47;;;17.30;99.90;;;;;;5018258;28;20207;-76
2021/08/31 08:13:48;;;;;;;2.80;2.20;;;17.30;99.90;;;;;;5017360;28;20172;-77
2021/08/31 08:16:14;;;;;;;2.80;2.60;;;17.40;99.90;;;;;;5024080;28;20958;-76
2021/08/31 08:18:39;;;;;;;5.33;2.53;;;17.50;99.90;;;;;;5013926;28;20200;-76
2021/08/31 08:21:05;;;;;;;3.30;1.97;;;17.40;99.90;;;;;;5014539;28;20852;-76
2021/08/31 08:23:31;;;;;;;1.63;1.53;;;17.50;99.90;;;;;;5019231;28;20207;-76
2021/08/31 08:25:57;;;;;;;4.40;2.83;;;17.50;99.90;;;;;;5031566;28;20160;-76
2021/08/31 08:28:24;;;;;;;3.33;3.03;;;17.60;99.90;;;;;;5022816;28;20474;-76
2021/08/31 08:30:51;;;;;;;4.93;2.37;;;17.50;99.90;;;;;;5013187;28;20191;-75
2021/08/31 08:33:17;;;;;;;2.03;1.70;;;17.60;99.90;;;;;;5020041;28;20418;-75
2021/08/31 08:35:43;;;;;;;5.70;2.80;;;17.60;99.90;;;;;;5028982;28;20434;-76
2021/08/31 08:38:09;;;;;;;2.80;1.67;;;17.60;99.90;;;;;;5027867;28;20512;-77
2021/08/31 08:40:35;;;;;;;4.60;2.23;;;17.70;99.90;;;;;;5024319;28;20824;-80
2021/08/31 08:43:03;;;;;;;2.70;2.17;;;17.60;99.90;;;;;;5019930;28;20207;-79
2021/08/31 08:45:29;;;;;;;3.43;3.00;;;17.60;99.90;;;;;;5020040;28;20433;-77
2021/08/31 08:47:54;;;;;;;3.60;2.80;;;17.70;99.90;;;;;;5035875;28;20790;-77
2021/08/31 08:50:20;;;;;;;8.17;2.40;;;17.70;99.90;;;;;;5032063;28;20942;-77
2021/08/31 08:52:45;;;;;;;2.10;1.70;;;17.60;99.90;;;;;;5026573;28;20184;-77
2021/08/31 08:55:12;;;;;;;4.33;3.40;;;17.60;99.90;;;;;;5029990;28;20284;-75
2021/08/31 08:57:38;;;;;;;2.93;2.60;;;17.60;99.90;;;;;;5015607;28;20535;-77
2021/08/31 09:00:05;;;;;;;1.53;1.43;;;17.60;99.90;;;;;;5032513;28;20437;-77
2021/08/31 09:02:33;;;;;;;3.97;3.43;;;17.60;99.90;;;;;;5015547;28;20211;-76
2021/08/31 09:04:59;;;;;;;4.67;2.13;;;17.50;99.90;;;;;;5020640;28;20872;-76
2021/08/31 09:07:28;;;;;;;1.30;1.20;;;17.50;99.90;;;;;;5027017;28;20568;-76
2021/08/31 09:10:17;;;;;;;2.20;1.13;;;17.60;99.90;;;;;;5016028;28;20192;-76
2021/08/31 09:12:46;;;;;;;1.83;1.60;;;17.60;99.90;;;;;;5015494;28;20414;-77
2021/08/31 09:15:39;;;;;;;2.33;2.07;;;17.60;99.90;;;;;;5029675;28;20431;-77
2021/08/31 09:20:39;;;;;;;3.57;3.23;;;17.50;99.90;;;;;;5024005;28;20472;-79
2021/08/31 09:23:06;;;;;;;4.50;2.83;;;17.50;99.90;;;;;;5032792;28;20818;-78
2021/08/31 09:25:34;;;;;;;3.33;2.60;;;17.50;99.90;;;;;;5025835;28;20793;-80
2021/08/31 09:28:00;;;;;;;2.87;1.47;;;17.50;99.90;;;;;;5021178;28;20549;-79
2021/08/31 09:30:30;;;;;;;1.70;1.60;;;17.50;99.90;;;;;;5035772;28;20442;-77
2021/08/31 09:33:06;;;;;;;1.63;1.53;;;17.40;99.90;;;;;;5039021;28;20199;-79
2021/08/31 09:35:33;;;;;;;3.93;2.57;;;17.40;99.90;;;;;;5038795;28;20446;-80
2021/08/31 09:38:03;;;;;;;3.20;1.90;;;17.40;99.90;;;;;;5037642;28;20429;-77
2021/08/31 09:40:34;;;;;;;3.03;1.63;;;17.40;99.90;;;;;;5036108;28;20438;-77
2021/08/31 09:43:04;;;;;;;7.03;2.10;;;17.40;99.90;;;;;;5034414;28;20878;-77
2021/08/31 09:45:35;;;;;;;1.33;1.23;;;17.40;99.90;;;;;;5034258;28;20934;-75
2021/08/31 09:48:02;;;;;;;1.93;1.10;;;17.40;99.90;;;;;;5033767;28;20411;-75
2021/08/31 09:50:31;;;;;;;3.17;2.90;;;17.40;99.90;;;;;;5034494;28;20418;-77
2021/08/31 09:53:04;;;;;;;1.37;1.27;;;17.40;99.90;;;;;;5034859;28;20862;-79
2021/08/31 09:55:30;;;;;;;0.90;0.80;;;17.50;99.90;;;;;;5039249;28;20491;-79
2021/08/31 09:58:06;;;;;;;1.80;1.70;;;17.50;99.90;;;;;;5038290;28;20414;-79
2021/08/31 10:00:32;;;;;;;4.17;2.63;;;17.60;99.90;;;;;;5037963;28;20418;-80
2021/08/31 10:02:59;;;;;;;3.17;2.97;;;17.60;99.90;;;;;;5027850;28;20461;-79
2021/08/31 10:05:26;;;;;;;2.03;1.93;;;17.60;99.90;;;;;;5018995;28;20537;-77
2021/08/31 10:07:52;;;;;;;3.87;3.67;;;17.70;99.90;;;;;;5019739;28;20522;-79
2021/08/31 10:10:18;;;;;;;3.23;1.40;;;17.80;99.90;;;;;;5016836;28;20434;-77
2021/08/31 10:12:46;;;;;;;2.10;1.53;;;17.80;99.90;;;;;;5017057;28;20411;-78
2021/08/31 10:15:13;;;;;;;5.03;2.30;;;17.80;99.90;;;;;;5016510;28;20833;-78
2021/08/31 10:17:43;;;;;;;3.00;2.50;;;17.80;99.90;;;;;;5015357;28;20411;-77
2021/08/31 10:20:13;;;;;;;1.97;1.20;;;17.90;99.90;;;;;;5014802;28;20442;-76
2021/08/31 10:22:41;;;;;;;1.10;1.00;;;18.00;99.90;;;;;;5014081;28;20451;-76
2021/08/31 10:25:08;;;;;;;2.20;1.77;;;18.20;99.90;;;;;;5015940;28;20403;-77
2021/08/31 10:27:40;;;;;;;1.50;1.40;;;18.20;99.90;;;;;;5018042;28;20831;-77
2021/08/31 10:30:20;;;;;;;2.67;2.47;;;18.30;99.90;;;;;;5014606;28;20800;-76
2021/08/31 10:32:52;;;;;;;3.20;1.80;;;18.40;99.90;;;;;;5014868;28;20426;-78
2021/08/31 10:35:31;;;;;;;1.93;1.73;;;18.40;99.90;;;;;;5015806;28;20764;-78
2021/08/31 10:37:59;;;;;;;1.37;1.00;;;18.50;99.90;;;;;;5016661;28;20478;-79
2021/08/31 10:40:39;;;;;;;1.07;0.97;;;18.50;99.90;;;;;;5018574;28;20896;-79
2021/08/31 10:43:06;;;;;;;2.43;1.07;;;18.40;99.90;;;;;;5016609;28;21050;-78
2021/08/31 10:45:39;;;;;;;6.33;2.33;;;18.50;99.90;;;;;;5015317;28;20414;-78
2021/08/31 10:48:23;;;;;;;2.67;1.23;;;18.50;99.90;;;;;;5015349;28;20415;-78
2021/08/31 10:51:00;;;;;;;1.93;1.83;;;18.50;99.90;;;;;;5015741;28;20465;-77
2021/08/31 10:53:48;;;;;;;1.00;0.90;;;18.50;99.90;;;;;;5012119;28;20481;-77
2021/08/31 10:56:20;;;;;;;1.03;0.93;;;18.60;99.90;;;;;;5029954;28;20524;-77
2021/08/31 10:58:48;;;;;;;4.00;2.70;;;18.80;99.90;;;;;;5025766;28;20453;-77
2021/08/31 11:01:15;;;;;;;1.30;1.20;;;19.00;99.90;;;;;;5018937;28;20501;-75
2021/08/31 11:03:42;;;;;;;2.03;1.43;;;19.30;99.90;;;;;;5033060;28;20458;-77
2021/08/31 11:06:18;;;;;;;2.00;1.47;;;19.60;99.90;;;;;;5021481;28;20785;-76
2021/08/31 11:09:09;;;;;;;1.60;0.90;;;20.10;99.90;;;;;;5013832;28;20550;-77
2021/08/31 11:11:35;;;;;;;2.40;1.37;;;20.40;99.90;;;;;;5012748;28;20438;-78
2021/08/31 11:14:01;;;;;;;3.97;2.43;;;21.10;99.90;;;;;;5016339;28;20969;-78
2021/08/31 11:16:29;;;;;;;2.50;1.37;;;21.70;99.90;;;;;;5018063;28;20268;-77
2021/08/31 11:18:55;;;;;;;2.23;2.13;;;22.40;99.90;;;;;;5017476;28;20246;-77
2021/08/31 11:21:22;;;;;;;1.57;1.33;;;23.30;99.90;;;;;;5015732;28;20431;-77
2021/08/31 11:23:48;;;;;;;2.63;1.90;;;24.10;99.90;;;;;;5016506;28;20458;-76
2021/08/31 11:26:24;;;;;;;3.53;3.17;;;24.40;99.90;;;;;;5013437;28;20415;-78
2021/08/31 11:28:51;;;;;;;2.57;1.60;;;24.70;99.90;;;;;;5028505;28;20446;-78
2021/08/31 11:31:28;;;;;;;1.23;1.10;;;25.00;99.90;;;;;;5033763;28;20437;-78
2021/08/31 11:33:55;;;;;;;2.13;1.60;;;25.00;99.90;;;;;;5034376;28;20417;-78
2021/08/31 11:36:24;;;;;;;2.27;1.80;;;25.20;99.90;;;;;;5033131;28;20414;-78
2021/08/31 11:38:52;;;;;;;4.80;4.40;;;25.30;99.90;;;;;;5021439;28;20871;-78
2021/08/31 11:41:20;;;;;;;2.67;2.40;;;25.50;99.90;;;;;;5024111;28;20416;-77
2021/08/31 11:43:49;;;;;;;2.70;2.50;;;25.90;99.90;;;;;;5023471;28;20450;-78
2021/08/31 11:46:23;;;;;;;2.53;2.33;;;26.40;99.90;;;;;;5012954;28;20442;-77
2021/08/31 11:48:48;;;;;;;1.67;1.33;;;27.30;99.90;;;;;;5013453;28;20427;-78
2021/08/31 11:51:19;;;;;;;2.23;1.10;;;27.90;99.90;;;;;;5015585;28;20415;-77
2021/08/31 11:53:46;;;;;;;1.83;1.73;;;27.70;99.90;;;;;;5047309;28;20199;-78
2021/08/31 11:56:13;;;;;;;5.63;2.07;;;27.60;99.90;;;;;;5033695;28;20500;-80
2021/08/31 11:58:45;;;;;;;2.23;1.70;;;27.50;99.90;;;;;;5043130;28;20983;-79
2021/08/31 12:01:10;;;;;;;2.23;1.30;;;27.10;99.90;;;;;;5036019;28;20868;-78
2021/08/31 12:03:36;;;;;;;2.90;1.77;;;27.20;99.90;;;;;;5025866;28;20467;-80
2021/08/31 12:06:12;;;;;;;2.50;1.70;;;27.10;99.90;;;;;;5025974;28;20194;-80
2021/08/31 12:08:44;;;;;;;1.33;1.23;;;27.30;99.90;;;;;;5045524;28;20195;-78
2021/08/31 12:11:18;;;;;;;3.23;3.03;;;27.50;99.90;;;;;;5036732;28;20486;-80
2021/08/31 12:31:16;;;;;;;1.40;1.30;;;28.90;99.90;;;;;;5043916;28;20441;-75
2021/08/31 12:33:43;;;;;;;1.60;1.33;;;28.60;99.90;;;;;;5035013;28;20418;-77
2021/08/31 12:36:12;;;;;;;1.80;1.70;;;28.10;99.90;;;;;;5045309;28;20440;-77
2021/08/31 12:38:44;;;;;;;1.13;1.03;;;27.80;99.90;;;;;;5052345;28;20462;-75
2021/08/31 12:41:12;;;;;;;1.57;1.20;;;28.10;99.90;;;;;;5052481;28;20414;-75
2021/08/31 12:43:45;;;;;;;2.50;1.27;;;28.30;99.90;;;;;;5056982;28;20454;-73
2021/08/31 12:46:20;;;;;;;1.17;1.07;;;28.70;99.90;;;;;;5056250;28;20418;-75
2021/08/31 12:48:47;;;;;;;2.67;2.47;;;29.20;99.90;;;;;;5045385;28;20450;-74
2021/08/31 12:51:14;;;;;;;1.33;1.23;;;29.40;99.90;;;;;;5044541;28;20435;-73
2021/08/31 12:53:42;;;;;;;2.93;1.33;;;29.80;99.90;;;;;;5037348;28;20443;-74
2021/08/31 12:56:10;;;;;;;1.60;1.40;;;30.20;99.90;;;;;;5040893;28;20459;-76
2021/08/31 12:58:37;;;;;;;2.63;1.53;;;30.40;96.70;;;;;;5052030;28;20561;-74
2021/08/31 13:01:04;;;;;;;1.87;1.77;;;30.50;96.60;;;;;;5043274;28;20441;-72
2021/08/31 13:03:30;;;;;;;4.43;2.87;;;30.80;94.60;;;;;;5049671;28;20465;-74
2021/08/31 13:05:56;;;;;;;1.67;1.53;;;30.70;94.30;;;;;;5042964;28;20469;-76
2021/08/31 13:08:22;;;;;;;1.90;1.60;;;30.70;90.90;;;;;;5032467;28;20469;-77
2021/08/31 13:10:47;;;;;;;1.87;1.63;;;30.80;90.20;;;;;;5033554;28;20462;-76